Nearby METAR Reports

 

KMTN - Baltimore/Martin, Maryland, USA
Distance from station: SSE 8mi, 13km
Updated: Wed, 01-Oct-2014 1:54am EDT
Clear
Clear
 Wind from calm
Wind: Calm
Temperature: 64°F , 18°C
Dew Point: 63°F , 17°C
Humidity: 94%
Barometer: 29.99 inHg , 1015.6 hPa
Clouds: Clear
Visibility: 10 miles , 16 km
2014/10/01 05:54 KMTN 010554Z AUTO 00000KT 10SM CLR 18/17 A2999 RMK AO2
KDMH - Baltimore/Dwntwn, Maryland, USA
Distance from station: SW 12mi, 19km
Updated: Wed, 01-Oct-2014 12:54am EDT

 
Temperature: 66°F , 19°C
Dew Point: 63°F , 17°C
Humidity: 88%
Barometer: 29.96 inHg , 1014.6 hPa
2014/10/01 04:54 KDMH 010454Z AUTO 19/17 A2996 RMK AO1 SLP145 P0002 T01890172 402440189
 
KBWI - Balto/Wash Intl, Maryland, USA
Distance from station: SSW 20mi, 33km
Updated: Wed, 01-Oct-2014 1:38am EDT
Mostly cloudy
Mostly cloudy
 Wind from NE
Wind: NE 6 mph , 9 km/h
Temperature: 64°F , 18°C
Dew Point: 63°F , 17°C
Humidity: 94%
Barometer: 29.97 inHg , 1014.9 hPa
Clouds: Mostly cloudy
Visibility: 10 miles , 16 km
Cloud details: Few Clouds 800 ft
Partly cloudy 1700 ft
Mostly cloudy 3600 ft
2014/10/01 05:38 KBWI 010538Z 04005KT 10SM FEW008 SCT017 BKN036 18/17 A2997 RMK AO2
KDMW - Carroll Cnty, Maryland, USA
Distance from station: WNW 30mi, 48km
Updated: Wed, 01-Oct-2014 1:50am EDT
Mist, Mostly cloudy
Mist, Mostly cloudy
 Wind from calm
Wind: Calm
Temperature: 59°F , 15°C
Dew Point: 57°F , 14°C
Humidity: 94%
Barometer: 29.98 inHg , 1015.2 hPa
Summary: Mist
Clouds: Mostly cloudy
Visibility: 3 miles , 5 km
Cloud details: Mostly cloudy 500 ft
Mostly cloudy 1300 ft
2014/10/01 05:50 KDMW 010550Z AUTO 00000KT 3SM BR BKN005 BKN013 15/14 A2998 RMK AO2
 
KNAK - Annapolis/Naval, Maryland, USA
Distance from station: S 30mi, 48km
Updated: Wed, 01-Oct-2014 1:54am EDT
Mostly cloudy
Mostly cloudy
 Wind from ENE
Wind: ENE 5 mph , 7 km/h
Temperature: 66°F , 19°C
Dew Point: 61°F , 16°C
Humidity: 83%
Barometer: 29.96 inHg , 1014.6 hPa
Clouds: Mostly cloudy
Visibility: 10 miles , 16 km
Cloud details: Few Clouds 1500 ft
Mostly cloudy 3700 ft
2014/10/01 05:54 KNAK 010554Z AUTO 06004KT 10SM FEW015 BKN037 19/16 A2996 RMK AO2 SLP146 T01940161 10217 20194 53004 $
KW29 - Stevensville, Maryland, USA
Distance from station: SSE 31mi, 50km
Updated: Wed, 01-Oct-2014 1:51am EDT

 Wind from E
Wind: E 6 mph , 9 km/h
Temperature: 64°F , 18°C
Dew Point: 61°F , 16°C
Humidity: 88%
Barometer: 29.96 inHg , 1014.6 hPa
Visibility: 10 miles , 16 km
2014/10/01 05:51 KW29 010551Z AUTO 08005KT 10SM 18/16 A2996 RMK AO1
 
KCGS - College Park, Maryland, USA
Distance from station: SW 38mi, 61km
Updated: Wed, 01-Oct-2014 1:50am EDT
Overcast
Overcast
 Wind from calm
Wind: Calm
Temperature: 64°F , 18°C
Dew Point: 64°F , 18°C
Humidity: 100%
Barometer: 29.96 inHg , 1014.6 hPa
Clouds: Overcast
Visibility: 10 miles , 16 km
Cloud details: Partly cloudy 1800 ft
Partly cloudy 2600 ft
Overcast 3100 ft
2014/10/01 05:50 KCGS 010550Z AUTO 00000KT 10SM SCT018 SCT026 OVC031 18/18 A2996 RMK AO1
KGAI - Gaithersburg, Maryland, USA
Distance from station: WSW 40mi, 65km
Updated: Wed, 01-Oct-2014 1:35am EDT
Mostly cloudy
Mostly cloudy
 Wind from ENE
Wind: ENE 3 mph , 6 km/h
Temperature: 63°F , 17°C
Dew Point: 61°F , 16°C
Humidity: 94%
Barometer: 30.00 inHg , 1015.9 hPa
Clouds: Mostly cloudy
Visibility: 7 miles , 11 km
Cloud details: Partly cloudy 600 ft
Partly cloudy 1300 ft
Mostly cloudy 3200 ft
2014/10/01 05:35 KGAI 010535Z 07003KT 7SM SCT006 SCT013 BKN032 17/16 A3000 RMK AO1
 
KTHV - York, Pennsylvania, USA
Distance from station: NNW 40mi, 65km
Updated: Wed, 01-Oct-2014 1:51am EDT
Mist, Partly cloudy
Mist, Partly cloudy
 Wind from calm
Wind: Calm
Temperature: 55°F , 13°C
Dew Point: 55°F , 13°C
Humidity: 100%
Barometer: 29.99 inHg , 1015.6 hPa
Summary: Mist
Clouds: Partly cloudy
Visibility: 3/4 mile , 5 km
Cloud details: Few Clouds 600 ft
Partly cloudy 1400 ft
2014/10/01 05:51 KTHV 010551Z AUTO 00000KT 3/4SM BR FEW006 SCT014 13/13 A2999 RMK AO2
KFDK - Frederick, Maryland, USA
Distance from station: W 47mi, 75km
Updated: Wed, 01-Oct-2014 1:50am EDT
Mist, Overcast
Mist, Overcast
 Wind from N
Wind: N 3 mph , 6 km/h
Temperature: 63°F , 17°C
Dew Point: 63°F , 17°C
Humidity: 100%
Barometer: 30.00 inHg , 1015.9 hPa
Summary: Mist
Clouds: Overcast
Visibility: 5 miles , 8 km
Cloud details: Overcast 300 ft
2014/10/01 05:50 KFDK 010550Z AUTO 01003KT 5SM BR OVC003 17/17 A3000 RMK AO2
 
KESN - Easton/Newnam, Maryland, USA
Distance from station: SSE 48mi, 78km
Updated: Wed, 01-Oct-2014 2:04am EDT
Overcast
Overcast
 Wind from calm
Wind: Calm
Temperature: 66°F , 19°C
Dew Point: 66°F , 19°C
Humidity: 100%
Barometer: 29.99 inHg , 1015.6 hPa
Clouds: Overcast
Visibility: 10 miles , 16 km
Cloud details: Overcast 4000 ft
2014/10/01 06:04 KESN 010604Z AUTO 00000KT 10SM OVC040 19/19 A2999 RMK AO2 T01850185
KDCA - Washington/Natl, Washington D.c., USA
Distance from station: SW 49mi, 79km
Updated: Wed, 01-Oct-2014 1:52am EDT
Overcast
Overcast
 Wind from ENE
Wind: ENE 8 mph , 13 km/h
Temperature: 70°F , 21°C
Dew Point: 63°F , 17°C
Humidity: 78%
Barometer: 29.96 inHg , 1014.6 hPa
Clouds: Overcast
Visibility: 10 miles , 16 km
Cloud details: Mostly cloudy 1400 ft
Mostly cloudy 2100 ft
Overcast 2600 ft
2014/10/01 05:52 KDCA 010552Z 06007KT 10SM BKN014 BKN021 OVC026 21/17 A2996 RMK AO2 RAE49 SLP144 P0000 60000 T02060167 10222 20200 53002
 
KLNS - Lancaster, Pennsylvania, USA
Distance from station: N 49mi, 79km
Updated: Wed, 01-Oct-2014 1:20am EDT
Light rain, Mist, Overcast
Light rain, Mist, Overcast
 Wind from NNE
Wind: NNE 6 mph , 9 km/h
Temperature: 63°F , 17°C
Dew Point: 61°F , 16°C
Humidity: 94%
Barometer: 30.00 inHg , 1015.9 hPa
Summary: Light rain, Mist
Clouds: Overcast
Visibility: 4 miles , 6 km
Cloud details: Few Clouds 900 ft
Mostly cloudy 2000 ft
Overcast 3200 ft
2014/10/01 05:20 KLNS 010520Z AUTO 02005KT 4SM -RA BR FEW009 BKN020 OVC032 17/16 A3000 RMK AO2 P0015 T01670156
KILG - Wilmington, Delaware, USA
Distance from station: ENE 50mi, 81km
Updated: Wed, 01-Oct-2014 1:51am EDT
Overcast
Overcast
 Wind from NNE
Wind: NNE 6 mph , 9 km/h
Temperature: 64°F , 18°C
Dew Point: 61°F , 16°C
Humidity: 88%
Barometer: 29.99 inHg , 1015.6 hPa
Clouds: Overcast
Visibility: 10 miles , 16 km
Cloud details: Mostly cloudy 2000 ft
Overcast 10000 ft
2014/10/01 05:51 KILG 010551Z 03005KT 10SM BKN020 OVC100 18/16 A2999 RMK AO2 SLP156 T01780156 10211 20178 53008